createdAt,value
2023-10-23T00:00:38.272Z,8.0
2023-10-23T00:02:11.504Z,8.0
2023-10-23T00:02:38.193Z,8.0
2023-10-23T00:03:38.465Z,8.0
2023-10-23T00:04:38.519Z,7.9
2023-10-23T00:06:38.369Z,7.9
2023-10-23T00:07:38.174Z,7.9
2023-10-23T00:08:38.167Z,7.9
2023-10-23T00:09:38.217Z,7.9
2023-10-23T00:10:38.174Z,7.9
2023-10-23T00:11:38.353Z,7.9
2023-10-23T00:12:38.199Z,7.8
2023-10-23T00:13:38.127Z,7.8
2023-10-23T00:14:38.359Z,7.8
2023-10-23T00:15:38.224Z,7.8
2023-10-23T00:16:38.207Z,7.8
2023-10-23T00:17:38.337Z,7.8
2023-10-23T00:18:38.162Z,7.8
2023-10-23T00:19:38.144Z,7.8
2023-10-23T00:20:38.186Z,7.8
2023-10-23T00:21:38.230Z,7.8
2023-10-23T00:22:38.158Z,7.8
2023-10-23T00:23:38.187Z,7.8
2023-10-23T00:24:38.521Z,7.8
2023-10-23T00:25:38.191Z,7.8
2023-10-23T00:26:38.163Z,7.8
2023-10-23T00:27:38.167Z,7.8
2023-10-23T00:28:38.309Z,7.8
2023-10-23T00:29:38.287Z,7.8
2023-10-23T00:30:38.180Z,7.8
2023-10-23T00:31:38.168Z,7.8
2023-10-23T00:32:38.218Z,7.8
2023-10-23T00:33:38.269Z,7.8
2023-10-23T00:34:38.458Z,7.7
2023-10-23T00:35:38.192Z,7.8
2023-10-23T00:36:38.186Z,7.7
2023-10-23T00:37:38.487Z,7.7
2023-10-23T00:38:38.081Z,7.7
2023-10-23T00:39:38.361Z,7.7
2023-10-23T00:40:38.165Z,7.7
2023-10-23T00:41:38.146Z,7.7
2023-10-23T00:42:38.196Z,7.7
2023-10-23T00:43:38.089Z,7.7
2023-10-23T00:44:38.245Z,7.7
2023-10-23T00:45:38.135Z,7.7
2023-10-23T00:46:38.189Z,7.7
2023-10-23T00:47:38.133Z,7.7
2023-10-23T00:48:38.109Z,7.7
2023-10-23T00:49:38.118Z,7.6
2023-10-23T00:50:38.093Z,7.6
2023-10-23T00:51:38.143Z,7.7
2023-10-23T00:52:38.101Z,7.6
2023-10-23T00:53:38.117Z,7.6
2023-10-23T00:54:38.294Z,7.6
2023-10-23T00:55:38.104Z,7.6
2023-10-23T00:56:38.113Z,7.6
2023-10-23T00:57:38.169Z,7.6
2023-10-23T00:58:38.144Z,7.6
2023-10-23T00:59:38.072Z,7.6
2023-10-23T01:00:38.198Z,7.6
2023-10-23T01:01:38.323Z,7.6
2023-10-23T01:02:38.169Z,7.6
2023-10-23T01:03:38.128Z,7.6
2023-10-23T01:04:38.272Z,7.6
2023-10-23T01:05:38.057Z,7.6
2023-10-23T01:06:38.099Z,7.6
2023-10-23T01:07:38.069Z,7.6
2023-10-23T01:08:38.117Z,7.6
2023-10-23T01:09:38.122Z,7.6
2023-10-23T01:10:38.076Z,7.6
2023-10-23T01:11:38.074Z,7.6
2023-10-23T01:12:38.213Z,7.6
2023-10-23T01:13:38.095Z,7.6
2023-10-23T01:14:38.258Z,7.6
2023-10-23T01:15:38.122Z,7.6
2023-10-23T01:16:38.199Z,7.6
2023-10-23T01:17:38.214Z,7.6
2023-10-23T01:18:38.204Z,7.6
2023-10-23T01:19:38.055Z,7.6
2023-10-23T01:20:38.080Z,7.6
2023-10-23T01:21:38.593Z,7.6
2023-10-23T01:22:38.061Z,7.6
2023-10-23T01:23:38.261Z,7.7
2023-10-23T01:24:38.250Z,7.7
2023-10-23T01:25:38.071Z,7.7
2023-10-23T01:26:38.089Z,7.7
2023-10-23T01:27:38.160Z,7.7
2023-10-23T01:28:38.107Z,7.7
2023-10-23T01:29:38.056Z,7.7
2023-10-23T01:30:38.128Z,7.7
2023-10-23T01:31:38.118Z,7.7
2023-10-23T01:32:38.234Z,7.7
2023-10-23T01:33:38.110Z,7.7
2023-10-23T01:34:38.353Z,7.7
2023-10-23T01:35:38.060Z,7.7
2023-10-23T01:36:38.058Z,7.7
2023-10-23T01:37:38.098Z,7.7
2023-10-23T01:38:38.051Z,7.7
2023-10-23T01:39:38.057Z,7.7
2023-10-23T01:40:38.011Z,7.7
2023-10-23T01:41:38.012Z,7.7
2023-10-23T01:42:38.149Z,7.7
2023-10-23T01:43:38.013Z,7.7
2023-10-23T01:44:38.284Z,7.7
2023-10-23T01:45:38.212Z,7.7
2023-10-23T01:46:38.068Z,7.7
2023-10-23T01:47:38.053Z,7.6
2023-10-23T01:48:38.112Z,7.6
2023-10-23T01:49:38.022Z,7.6
2023-10-23T01:50:40.937Z,7.6
2023-10-23T01:51:38.029Z,7.6
2023-10-23T01:52:38.075Z,7.6
2023-10-23T01:53:38.040Z,7.6
2023-10-23T01:54:38.279Z,7.6
2023-10-23T01:55:37.996Z,7.6
2023-10-23T01:56:38.176Z,7.6
2023-10-23T01:57:38.134Z,7.6
2023-10-23T01:58:38.004Z,7.6
2023-10-23T01:59:38.001Z,7.6
2023-10-23T02:00:38.076Z,7.6
2023-10-23T02:01:38.084Z,7.6
2023-10-23T02:02:38.129Z,7.6
2023-10-23T02:03:38.076Z,7.6
2023-10-23T02:04:38.272Z,7.6
2023-10-23T02:05:38.005Z,7.6
2023-10-23T02:06:38.049Z,7.6
2023-10-23T02:07:38.239Z,7.6
2023-10-23T02:08:38.007Z,7.6
2023-10-23T02:09:38.040Z,7.5
2023-10-23T02:10:37.955Z,7.5
2023-10-23T02:11:38.010Z,7.5
2023-10-23T02:12:38.096Z,7.5
2023-10-23T02:13:37.982Z,7.5
2023-10-23T02:14:38.327Z,7.5
2023-10-23T02:15:38.016Z,7.5
2023-10-23T02:16:38.074Z,7.5
2023-10-23T02:17:38.823Z,7.5
2023-10-23T02:18:38.295Z,7.5
2023-10-23T02:19:38.116Z,7.5
2023-10-23T02:20:37.975Z,7.5
2023-10-23T02:21:38.071Z,7.5
2023-10-23T02:22:37.943Z,7.5
2023-10-23T02:23:53.299Z,7.5
2023-10-23T02:24:38.166Z,7.5
2023-10-23T02:25:37.974Z,7.4
2023-10-23T02:26:38.134Z,7.4
2023-10-23T02:27:37.999Z,7.4
2023-10-23T02:28:38.014Z,7.4
2023-10-23T02:29:37.919Z,7.4
2023-10-23T02:30:38.145Z,7.4
2023-10-23T02:31:38.138Z,7.4
2023-10-23T02:32:38.003Z,7.4
2023-10-23T02:33:38.612Z,7.4
2023-10-23T02:34:38.389Z,7.4
2023-10-23T02:35:37.969Z,7.4
2023-10-23T02:36:37.997Z,7.4
2023-10-23T02:37:38.051Z,7.4
2023-10-23T02:38:37.956Z,7.4
2023-10-23T02:39:38.472Z,7.4
2023-10-23T02:40:37.981Z,7.4
2023-10-23T02:41:37.954Z,7.4
2023-10-23T02:42:37.966Z,7.4
2023-10-23T02:43:37.938Z,7.4
2023-10-23T02:44:37.976Z,7.4
2023-10-23T02:45:38.003Z,7.4
2023-10-23T02:46:38.314Z,7.4
2023-10-23T02:47:37.935Z,7.4
2023-10-23T02:48:37.975Z,7.4
2023-10-23T02:49:38.365Z,7.4
2023-10-23T02:50:37.960Z,7.4
2023-10-23T02:51:38.028Z,7.4
2023-10-23T02:52:38.059Z,7.4
2023-10-23T02:53:37.944Z,7.4
2023-10-23T02:54:38.056Z,7.4
2023-10-23T02:55:37.931Z,7.4
2023-10-23T02:56:37.941Z,7.4
2023-10-23T02:57:38.034Z,7.3
2023-10-23T02:58:37.899Z,7.3
2023-10-23T02:59:38.237Z,7.3
2023-10-23T03:00:37.988Z,7.3
2023-10-23T03:01:37.950Z,7.3
2023-10-23T03:02:37.996Z,7.3
2023-10-23T03:03:38.222Z,7.3
2023-10-23T03:04:38.197Z,7.3
2023-10-23T03:05:37.939Z,7.3
2023-10-23T03:06:38.060Z,7.3
2023-10-23T03:07:37.913Z,7.3
2023-10-23T03:08:37.951Z,7.3
2023-10-23T03:09:38.277Z,7.3
2023-10-23T03:10:37.899Z,7.3
2023-10-23T03:11:37.864Z,7.3
2023-10-23T03:12:38.039Z,7.3
2023-10-23T03:13:37.932Z,7.3
2023-10-23T03:14:37.900Z,7.3
2023-10-23T03:15:39.457Z,7.3
2023-10-23T03:16:38.194Z,7.3
2023-10-23T03:17:37.928Z,7.3
2023-10-23T03:18:38.019Z,7.3
2023-10-23T03:19:38.144Z,7.3
2023-10-23T03:20:37.877Z,7.3
2023-10-23T03:21:38.436Z,7.3
2023-10-23T03:22:37.882Z,7.3
2023-10-23T03:23:37.895Z,7.3
2023-10-23T03:24:37.933Z,7.3
2023-10-23T03:25:37.989Z,7.3
2023-10-23T03:26:37.847Z,7.3
2023-10-23T03:27:37.957Z,7.3
2023-10-23T03:28:37.863Z,7.3
2023-10-23T03:29:38.178Z,7.3
2023-10-23T03:30:37.938Z,7.3
2023-10-23T03:31:37.864Z,7.3
2023-10-23T03:32:37.936Z,7.3
2023-10-23T03:33:37.894Z,7.3
2023-10-23T03:34:37.959Z,7.3
2023-10-23T03:35:37.861Z,7.3
2023-10-23T03:36:37.968Z,7.2
2023-10-23T03:37:37.850Z,7.2
2023-10-23T03:38:37.818Z,7.2
2023-10-23T03:39:40.149Z,7.2
2023-10-23T03:40:37.898Z,7.2
2023-10-23T03:41:37.846Z,7.2
2023-10-23T03:42:37.909Z,7.2
2023-10-23T03:43:37.841Z,7.2
2023-10-23T03:44:37.854Z,7.2
2023-10-23T03:45:38.089Z,7.2
2023-10-23T03:46:37.902Z,7.2
2023-10-23T03:47:38.061Z,7.2
2023-10-23T03:48:37.899Z,7.2
2023-10-23T03:49:38.059Z,7.2
2023-10-23T03:50:37.831Z,7.2
2023-10-23T03:51:37.872Z,7.2
2023-10-23T03:52:37.808Z,7.2
2023-10-23T03:53:37.878Z,7.2
2023-10-23T03:54:37.896Z,7.2
2023-10-23T03:55:37.844Z,7.2
2023-10-23T03:56:38.036Z,7.2
2023-10-23T03:57:37.876Z,7.2
2023-10-23T03:58:37.961Z,7.2
2023-10-23T03:59:38.086Z,7.2
2023-10-23T04:00:37.924Z,7.2
2023-10-23T04:01:37.835Z,7.2
2023-10-23T04:02:37.838Z,7.2
2023-10-23T04:03:40.096Z,7.2
2023-10-23T04:04:40.210Z,7.2
2023-10-23T04:05:37.815Z,7.2
2023-10-23T04:06:37.823Z,7.2
2023-10-23T04:07:37.797Z,7.2
2023-10-23T04:08:37.780Z,7.2
2023-10-23T04:09:38.481Z,7.2
2023-10-23T04:10:37.797Z,7.1
2023-10-23T04:11:37.793Z,7.2
2023-10-23T04:12:37.860Z,7.1
2023-10-23T04:13:37.800Z,7.1
2023-10-23T04:14:37.790Z,7.1
2023-10-23T04:15:37.856Z,7.1
2023-10-23T04:16:37.856Z,7.1
2023-10-23T04:17:37.771Z,7.1
2023-10-23T04:18:37.844Z,7.1
2023-10-23T04:19:37.961Z,7.1
2023-10-23T04:20:38.020Z,7.1
2023-10-23T04:21:37.838Z,7.1
2023-10-23T04:22:37.780Z,7.1
2023-10-23T04:23:37.799Z,7.1
2023-10-23T04:24:37.843Z,7.1
2023-10-23T04:25:37.855Z,7.1
2023-10-23T04:26:38.661Z,7.1
2023-10-23T04:27:37.833Z,7.1
2023-10-23T04:28:37.987Z,7.1
2023-10-23T04:29:37.959Z,7.1
2023-10-23T04:30:37.817Z,7.1
2023-10-23T04:31:37.964Z,7.1
2023-10-23T04:32:37.809Z,7.1
2023-10-23T04:33:37.851Z,7.1
2023-10-23T04:34:37.748Z,7.1
2023-10-23T04:35:37.848Z,7.1
2023-10-23T04:36:37.838Z,7.1
2023-10-23T04:37:37.735Z,7.1
2023-10-23T04:38:37.777Z,7.1
2023-10-23T04:39:38.066Z,7.1
2023-10-23T04:40:37.819Z,7.1
2023-10-23T04:41:37.775Z,7.1
2023-10-23T04:42:37.947Z,7.1
2023-10-23T04:43:37.795Z,7.1
2023-10-23T04:44:37.747Z,7.1
2023-10-23T04:45:37.875Z,7.1
2023-10-23T04:46:37.871Z,7.1
2023-10-23T04:47:37.808Z,7.1
2023-10-23T04:48:37.805Z,7.1
2023-10-23T04:49:37.939Z,7.1
2023-10-23T04:50:37.810Z,7.1
2023-10-23T04:51:37.778Z,7.1
2023-10-23T04:52:37.754Z,7.1
2023-10-23T04:53:38.023Z,7.1
2023-10-23T04:54:37.803Z,7.1
2023-10-23T04:55:37.803Z,7.1
2023-10-23T04:56:37.754Z,7.1
2023-10-23T04:57:37.818Z,7.1
2023-10-23T04:58:37.839Z,7.1
2023-10-23T04:59:38.054Z,7.0
2023-10-23T05:00:38.032Z,7.1
2023-10-23T05:01:37.818Z,7.1
2023-10-23T05:02:37.775Z,7.1
2023-10-23T05:03:37.875Z,7.1
2023-10-23T05:04:37.964Z,7.1
2023-10-23T05:05:37.802Z,7.1
2023-10-23T05:06:37.832Z,7.1
2023-10-23T05:07:37.742Z,7.1
2023-10-23T05:08:37.727Z,7.1
2023-10-23T05:09:38.010Z,7.1
2023-10-23T05:10:37.749Z,7.1
2023-10-23T05:11:37.751Z,7.1
2023-10-23T05:12:37.777Z,7.1
2023-10-23T05:13:37.718Z,7.1
2023-10-23T05:14:37.724Z,7.1
2023-10-23T05:15:37.884Z,7.1
2023-10-23T05:16:37.780Z,7.1
2023-10-23T05:17:37.794Z,7.1
2023-10-23T05:18:37.781Z,7.1
2023-10-23T05:19:37.907Z,7.1
2023-10-23T05:20:37.848Z,7.1
2023-10-23T05:21:37.724Z,7.1
2023-10-23T05:22:37.730Z,7.1
2023-10-23T05:23:37.722Z,7.1
2023-10-23T05:24:37.740Z,7.1
2023-10-23T05:25:37.796Z,7.1
2023-10-23T05:26:37.839Z,7.1
2023-10-23T05:27:37.740Z,7.1
2023-10-23T05:28:37.715Z,7.2
2023-10-23T05:29:39.162Z,7.2
2023-10-23T05:30:37.771Z,7.2
2023-10-23T05:31:37.816Z,7.2
2023-10-23T05:32:37.727Z,7.2
2023-10-23T05:33:37.786Z,7.2
2023-10-23T05:34:37.690Z,7.2
2023-10-23T05:35:37.813Z,7.2
2023-10-23T05:36:37.785Z,7.2
2023-10-23T05:37:37.899Z,7.2
2023-10-23T05:38:37.766Z,7.2
2023-10-23T05:39:38.050Z,7.2
2023-10-23T05:40:37.726Z,7.2
2023-10-23T05:41:37.853Z,7.2
2023-10-23T05:42:37.781Z,7.2
2023-10-23T05:43:37.681Z,7.2
2023-10-23T05:44:37.657Z,7.2
2023-10-23T05:45:37.769Z,7.2
2023-10-23T05:46:37.862Z,7.2
2023-10-23T05:47:37.770Z,7.3
2023-10-23T05:48:37.960Z,7.3
2023-10-23T05:49:37.817Z,7.3
2023-10-23T05:50:37.672Z,7.3
2023-10-23T05:51:37.812Z,7.3
2023-10-23T05:52:37.672Z,7.3
2023-10-23T05:53:37.648Z,7.3
2023-10-23T05:54:37.677Z,7.3
2023-10-23T05:55:37.636Z,7.3
2023-10-23T05:56:37.828Z,7.3
2023-10-23T05:57:37.770Z,7.4
2023-10-23T05:58:37.632Z,7.4
2023-10-23T05:59:38.033Z,7.4
2023-10-23T06:00:37.688Z,7.4
2023-10-23T06:01:37.777Z,7.4
2023-10-23T06:02:37.652Z,7.4
2023-10-23T06:03:37.809Z,7.4
2023-10-23T06:04:37.802Z,7.5
2023-10-23T06:05:37.636Z,7.5
2023-10-23T06:06:37.824Z,7.5
2023-10-23T06:07:37.746Z,7.5
2023-10-23T06:08:37.644Z,7.5
2023-10-23T06:09:37.810Z,7.5
2023-10-23T06:10:37.746Z,7.5
2023-10-23T06:11:37.774Z,7.6
2023-10-23T06:12:37.687Z,7.6
2023-10-23T06:13:37.639Z,7.6
2023-10-23T06:14:37.607Z,7.6
2023-10-23T06:15:37.606Z,7.6
2023-10-23T06:16:37.810Z,7.6
2023-10-23T06:17:37.729Z,7.7
2023-10-23T06:18:37.653Z,7.7
2023-10-23T06:19:37.841Z,7.7
2023-10-23T06:20:37.613Z,7.7
2023-10-23T06:21:37.945Z,7.7
2023-10-23T06:22:37.633Z,7.8
2023-10-23T06:23:37.648Z,7.8
2023-10-23T06:24:37.637Z,7.8
2023-10-23T06:25:37.592Z,7.8
2023-10-23T06:26:37.731Z,7.8
2023-10-23T06:27:37.668Z,7.8
2023-10-23T06:28:37.613Z,7.9
2023-10-23T06:29:37.809Z,7.9
2023-10-23T06:30:37.772Z,7.9
2023-10-23T06:31:37.774Z,7.9
2023-10-23T06:32:37.762Z,7.9
2023-10-23T06:33:37.642Z,7.9
2023-10-23T06:34:37.616Z,8.0
2023-10-23T06:35:37.571Z,8.0
2023-10-23T06:36:37.712Z,8.0
2023-10-23T06:37:37.673Z,8.0
2023-10-23T06:38:37.623Z,8.0
2023-10-23T06:39:37.831Z,8.0
2023-10-23T06:40:37.581Z,8.1
2023-10-23T06:41:37.769Z,8.1
2023-10-23T06:42:37.609Z,8.1
2023-10-23T06:43:37.674Z,8.1
2023-10-23T06:44:37.571Z,8.1
2023-10-23T06:45:57.394Z,8.1
2023-10-23T06:46:37.829Z,8.2
2023-10-23T06:47:37.732Z,8.2
2023-10-23T06:48:37.679Z,8.2
2023-10-23T06:49:37.766Z,8.2
2023-10-23T06:50:37.539Z,8.2
2023-10-23T06:51:37.693Z,8.2
2023-10-23T06:52:37.653Z,8.2
2023-10-23T06:53:37.533Z,8.3
2023-10-23T06:54:37.676Z,8.3
2023-10-23T06:55:37.525Z,8.3
2023-10-23T06:56:37.709Z,8.3
2023-10-23T06:57:37.573Z,8.3
2023-10-23T06:58:37.530Z,8.3
2023-10-23T06:59:38.044Z,8.3
2023-10-23T07:00:37.518Z,8.4
2023-10-23T07:01:44.470Z,8.4
2023-10-23T07:02:37.657Z,8.4
2023-10-23T07:03:37.752Z,8.4
2023-10-23T07:04:37.526Z,8.4
2023-10-23T07:05:38.642Z,8.4
2023-10-23T07:06:38.677Z,8.5
2023-10-23T07:07:37.558Z,8.5
2023-10-23T07:08:37.550Z,8.5
2023-10-23T07:09:37.679Z,8.5
2023-10-23T07:10:37.518Z,8.5
2023-10-23T07:11:37.718Z,8.6
2023-10-23T07:12:37.567Z,8.6
2023-10-23T07:13:37.599Z,8.6
2023-10-23T07:14:37.494Z,8.6
2023-10-23T07:15:37.581Z,8.6
2023-10-23T07:16:37.824Z,8.6
2023-10-23T07:17:37.559Z,8.7
2023-10-23T07:18:37.550Z,8.7
2023-10-23T07:19:37.748Z,8.7
2023-10-23T07:20:37.536Z,8.7
2023-10-23T07:21:37.667Z,8.8
2023-10-23T07:22:37.546Z,8.8
2023-10-23T07:23:37.530Z,8.8
2023-10-23T07:24:37.490Z,8.8
2023-10-23T07:25:37.598Z,8.8
2023-10-23T07:26:37.623Z,8.9
2023-10-23T07:27:37.706Z,8.9
2023-10-23T07:28:37.558Z,8.9
2023-10-23T07:29:37.624Z,8.9
2023-10-23T07:30:37.492Z,8.9
2023-10-23T07:31:37.737Z,8.9
2023-10-23T07:32:37.529Z,8.9
2023-10-23T07:33:37.653Z,8.9
2023-10-23T07:34:37.533Z,8.9
2023-10-23T07:36:37.665Z,9.0
2023-10-23T07:37:37.482Z,9.0
2023-10-23T07:38:37.663Z,9.0
2023-10-23T07:39:37.730Z,9.0
2023-10-23T07:40:37.499Z,9.0
2023-10-23T07:41:37.476Z,9.1
2023-10-23T07:42:37.570Z,9.1
2023-10-23T07:43:37.498Z,9.1
2023-10-23T07:44:37.489Z,9.1
2023-10-23T07:45:37.527Z,9.1
2023-10-23T07:46:37.547Z,9.1
2023-10-23T07:47:37.464Z,9.2
2023-10-23T07:48:37.506Z,9.2
2023-10-23T07:49:37.879Z,9.2
2023-10-23T07:50:37.552Z,9.2
2023-10-23T07:51:37.538Z,9.2
2023-10-23T07:52:37.467Z,9.2
2023-10-23T07:53:37.509Z,9.2
2023-10-23T07:54:37.449Z,9.3
2023-10-23T07:55:37.502Z,9.3
2023-10-23T07:56:37.453Z,9.3
2023-10-23T07:57:37.454Z,9.3
2023-10-23T07:58:37.503Z,9.3
2023-10-23T07:59:37.716Z,9.4
2023-10-23T08:00:37.634Z,9.4
2023-10-23T08:01:37.540Z,9.4
2023-10-23T08:02:37.566Z,9.4
2023-10-23T08:03:37.573Z,9.4
2023-10-23T08:04:37.560Z,9.5
2023-10-23T08:05:37.432Z,9.5
2023-10-23T08:06:37.453Z,9.5
2023-10-23T08:07:37.589Z,9.5
2023-10-23T08:08:37.436Z,9.6
2023-10-23T08:09:37.586Z,9.6
2023-10-23T08:10:37.466Z,9.6
2023-10-23T08:11:37.630Z,9.6
2023-10-23T08:12:37.561Z,9.6
2023-10-23T08:13:37.870Z,9.7
2023-10-23T08:14:37.393Z,9.7
2023-10-23T08:15:37.493Z,9.7
2023-10-23T08:16:37.487Z,9.7
2023-10-23T08:17:42.583Z,9.8
2023-10-23T08:18:40.668Z,9.8
2023-10-23T08:19:37.579Z,9.8
2023-10-23T08:20:37.439Z,9.9
2023-10-23T08:21:37.391Z,9.9
2023-10-23T08:22:37.401Z,9.9
2023-10-23T08:23:37.444Z,9.9
2023-10-23T08:24:37.427Z,10.0
2023-10-23T08:25:37.446Z,10.0
2023-10-23T08:26:37.381Z,10.0
2023-10-23T08:27:37.378Z,10.1
2023-10-23T08:29:37.583Z,10.1
2023-10-23T08:30:37.390Z,10.2
2023-10-23T08:32:05.779Z,10.2
2023-10-23T08:33:06.933Z,10.2
2023-10-23T08:34:06.077Z,10.3
2023-10-23T08:35:05.883Z,10.3
2023-10-23T08:36:05.841Z,10.3
2023-10-23T08:37:05.888Z,10.4
2023-10-23T08:38:05.873Z,10.4
2023-10-23T08:39:05.784Z,10.4
2023-10-23T08:40:05.845Z,10.4
2023-10-23T08:41:05.820Z,10.4
2023-10-23T08:42:05.739Z,10.5
2023-10-23T08:43:05.777Z,10.5
2023-10-23T08:44:06.250Z,10.5
2023-10-23T08:45:05.855Z,10.6
2023-10-23T08:46:05.788Z,10.6
2023-10-23T08:47:05.790Z,10.6
2023-10-23T08:48:05.791Z,10.6
2023-10-23T08:49:05.802Z,10.6
2023-10-23T08:50:05.756Z,10.7
2023-10-23T08:51:05.701Z,10.7
2023-10-23T08:52:05.761Z,10.7
2023-10-23T08:53:05.748Z,10.7
2023-10-23T08:55:06.285Z,10.7
2023-10-23T08:56:05.746Z,10.7
2023-10-23T08:57:05.984Z,10.7
2023-10-23T08:58:05.762Z,10.7
2023-10-23T08:59:05.766Z,10.8
2023-10-23T09:00:05.740Z,10.8
2023-10-23T09:01:05.782Z,10.8
2023-10-23T09:02:05.910Z,10.8
2023-10-23T09:03:05.755Z,10.8
2023-10-23T09:04:06.655Z,10.8
2023-10-23T09:05:05.967Z,10.8
2023-10-23T09:06:05.889Z,10.9
2023-10-23T09:07:05.752Z,10.9
2023-10-23T09:08:05.692Z,10.9
2023-10-23T09:09:06.088Z,10.9
2023-10-23T09:10:06.128Z,10.9
2023-10-23T09:11:05.872Z,11.0
2023-10-23T09:12:05.672Z,11.0
2023-10-23T09:13:05.729Z,11.0
2023-10-23T09:14:05.710Z,11.0
2023-10-23T09:15:05.750Z,11.1
2023-10-23T09:16:05.773Z,11.1
2023-10-23T09:17:05.933Z,11.1
2023-10-23T09:18:05.763Z,11.1
2023-10-23T09:19:05.829Z,11.1
2023-10-23T09:20:05.695Z,11.1
2023-10-23T09:21:05.762Z,11.1
2023-10-23T09:22:05.662Z,11.1
2023-10-23T09:23:05.713Z,11.1
2023-10-23T09:24:05.704Z,11.1
2023-10-23T09:25:05.823Z,11.1
2023-10-23T09:26:05.696Z,11.2
2023-10-23T09:27:05.704Z,11.2
2023-10-23T09:28:05.725Z,11.2
2023-10-23T09:29:05.673Z,11.3
2023-10-23T09:30:06.720Z,11.3
2023-10-23T09:31:05.759Z,11.3
2023-10-23T09:32:05.794Z,11.4
2023-10-23T09:33:05.701Z,11.4
2023-10-23T09:34:05.770Z,11.4
2023-10-23T09:35:06.009Z,11.5
2023-10-23T09:36:05.731Z,11.5
2023-10-23T09:37:05.662Z,11.5
2023-10-23T09:38:05.647Z,11.6
2023-10-23T09:39:05.823Z,11.6
2023-10-23T09:40:05.941Z,11.6
2023-10-23T09:41:05.936Z,11.7
2023-10-23T09:42:05.693Z,11.7
2023-10-23T09:43:05.731Z,11.8
2023-10-23T09:44:05.674Z,11.8
2023-10-23T09:45:05.820Z,11.8
2023-10-23T09:46:05.705Z,11.9
2023-10-23T09:47:05.721Z,11.9
2023-10-23T09:48:05.744Z,11.9
2023-10-23T09:49:05.957Z,11.9
2023-10-23T09:50:05.754Z,12.0
2023-10-23T09:51:05.724Z,12.0
2023-10-23T09:52:05.973Z,12.1
2023-10-23T09:53:05.699Z,12.1
2023-10-23T09:54:05.824Z,12.1
2023-10-23T09:55:05.848Z,12.1
2023-10-23T09:56:05.752Z,12.2
2023-10-23T09:57:05.686Z,12.2
2023-10-23T09:58:05.692Z,12.2
2023-10-23T09:59:05.710Z,12.3
2023-10-23T10:00:06.472Z,12.3
2023-10-23T10:01:05.675Z,12.4
2023-10-23T10:02:05.749Z,12.4
2023-10-23T10:03:05.954Z,12.4
2023-10-23T10:04:06.092Z,12.5
2023-10-23T10:05:05.706Z,12.5
2023-10-23T10:06:05.611Z,12.5
2023-10-23T10:07:05.844Z,12.6
2023-10-23T10:08:05.653Z,12.6
2023-10-23T10:09:05.683Z,12.6
2023-10-23T10:10:05.720Z,12.7
2023-10-23T10:11:05.597Z,12.7
2023-10-23T10:12:05.786Z,12.8
2023-10-23T10:13:05.683Z,12.8
2023-10-23T10:14:05.702Z,12.9
2023-10-23T10:15:05.612Z,12.9
2023-10-23T10:16:05.786Z,13.0
2023-10-23T10:17:05.690Z,13.0
2023-10-23T10:18:05.643Z,13.1
2023-10-23T10:19:05.677Z,13.1
2023-10-23T10:20:05.632Z,13.1
2023-10-23T10:21:05.599Z,13.2
2023-10-23T10:22:05.866Z,13.2
2023-10-23T10:23:05.829Z,13.3
2023-10-23T10:24:05.677Z,13.3
2023-10-23T10:25:05.740Z,13.3
2023-10-23T10:26:05.585Z,13.4
2023-10-23T10:27:05.626Z,13.4
2023-10-23T10:28:05.667Z,13.4
2023-10-23T10:29:05.628Z,13.5
2023-10-23T10:30:05.723Z,13.5
2023-10-23T10:31:05.618Z,13.5
2023-10-23T10:32:05.737Z,13.6
2023-10-23T10:34:25.729Z,13.6
2023-10-23T10:34:28.023Z,13.6
2023-10-23T10:35:05.777Z,13.7
2023-10-23T10:36:05.650Z,13.7
2023-10-23T10:37:08.529Z,13.7
2023-10-23T10:38:05.665Z,13.8
2023-10-23T10:39:05.729Z,13.8
2023-10-23T10:40:05.792Z,13.8
2023-10-23T10:41:05.739Z,13.9
2023-10-23T10:42:05.600Z,13.9
2023-10-23T10:43:05.805Z,13.9
2023-10-23T10:44:05.713Z,13.9
2023-10-23T10:45:05.605Z,14.0
2023-10-23T10:46:05.789Z,14.0
2023-10-23T10:47:05.615Z,14.0
2023-10-23T10:48:05.673Z,14.0
2023-10-23T10:49:05.621Z,14.1
2023-10-23T10:50:05.660Z,14.1
2023-10-23T10:51:05.588Z,14.1
2023-10-23T10:52:05.645Z,14.1
2023-10-23T10:53:05.633Z,14.2
2023-10-23T10:54:05.622Z,14.2
2023-10-23T10:55:05.700Z,14.2
2023-10-23T10:56:05.858Z,14.2
2023-10-23T10:57:05.605Z,14.2
2023-10-23T10:58:05.625Z,14.2
2023-10-23T10:59:05.731Z,14.3
2023-10-23T11:00:05.635Z,14.3
2023-10-23T11:01:05.636Z,14.3
2023-10-23T11:02:05.571Z,14.3
2023-10-23T11:03:06.077Z,14.3
2023-10-23T11:04:05.909Z,14.4
2023-10-23T11:05:05.609Z,14.4
2023-10-23T11:06:05.572Z,14.4
2023-10-23T11:07:05.741Z,14.4
2023-10-23T11:08:06.109Z,14.4
2023-10-23T11:09:05.766Z,14.4
2023-10-23T11:10:05.623Z,14.5
2023-10-23T11:11:05.581Z,14.5
2023-10-23T11:12:05.543Z,14.5
2023-10-23T11:13:05.634Z,14.5
2023-10-23T11:14:05.577Z,14.6
2023-10-23T11:15:05.631Z,14.6
2023-10-23T11:16:05.642Z,14.6
2023-10-23T11:17:06.063Z,14.6
2023-10-23T11:18:05.603Z,14.7
2023-10-23T11:19:05.722Z,14.7
2023-10-23T11:20:05.802Z,14.7
2023-10-23T11:21:05.569Z,14.7
2023-10-23T11:22:05.537Z,14.8
2023-10-23T11:23:05.529Z,14.8
2023-10-23T11:24:05.587Z,14.8
2023-10-23T11:25:05.666Z,14.8
2023-10-23T11:26:05.534Z,14.8
2023-10-23T11:27:05.522Z,14.8
2023-10-23T11:28:05.591Z,14.9
2023-10-23T11:29:05.515Z,14.9
2023-10-23T11:30:05.607Z,14.9
2023-10-23T11:31:05.647Z,14.9
2023-10-23T11:32:05.545Z,14.9
2023-10-23T11:33:05.549Z,14.9
2023-10-23T11:34:05.602Z,14.9
2023-10-23T11:35:05.586Z,14.9
2023-10-23T11:36:05.548Z,14.9
2023-10-23T11:37:06.051Z,14.9
2023-10-23T11:38:06.095Z,15.0
2023-10-23T11:39:05.516Z,15.0
2023-10-23T11:40:05.759Z,15.0
2023-10-23T11:41:05.549Z,15.0
2023-10-23T11:42:05.615Z,15.0
2023-10-23T11:43:05.509Z,15.0
2023-10-23T11:44:05.526Z,15.0
2023-10-23T11:45:05.515Z,15.0
2023-10-23T11:46:05.560Z,15.1
2023-10-23T11:47:05.651Z,15.1
2023-10-23T11:48:05.585Z,15.1
2023-10-23T11:49:05.528Z,15.1
2023-10-23T11:50:05.665Z,15.1
2023-10-23T11:51:05.929Z,15.1
2023-10-23T11:52:05.578Z,15.1
2023-10-23T11:53:05.611Z,15.1
2023-10-23T11:54:05.776Z,15.1
2023-10-23T11:55:05.587Z,15.1
2023-10-23T11:56:05.551Z,15.1
2023-10-23T11:57:05.480Z,15.1
2023-10-23T11:58:05.718Z,15.1
2023-10-23T11:59:05.510Z,15.1
2023-10-23T12:00:05.705Z,15.1
2023-10-23T12:01:05.541Z,15.2
2023-10-23T12:02:05.869Z,15.2
2023-10-23T12:03:05.607Z,15.2
2023-10-23T12:04:05.627Z,15.2
2023-10-23T12:05:06.963Z,15.2
2023-10-23T12:06:05.562Z,15.2
2023-10-23T12:07:06.156Z,15.2
2023-10-23T12:08:05.618Z,15.2
2023-10-23T12:09:05.505Z,15.2
2023-10-23T12:10:05.602Z,15.2
2023-10-23T12:11:05.494Z,15.2
2023-10-23T12:12:05.528Z,15.2
2023-10-23T12:13:05.629Z,15.2
2023-10-23T12:14:05.445Z,15.3
2023-10-23T12:15:05.579Z,15.3
2023-10-23T12:16:05.739Z,15.3
2023-10-23T12:17:05.469Z,15.3
2023-10-23T12:18:05.563Z,15.3
2023-10-23T12:19:08.458Z,15.3
2023-10-23T12:20:05.785Z,15.3
2023-10-23T12:21:05.488Z,15.3
2023-10-23T12:22:05.507Z,15.3
2023-10-23T12:23:05.449Z,15.4
2023-10-23T12:24:05.442Z,15.4
2023-10-23T12:25:05.553Z,15.4
2023-10-23T12:26:05.542Z,15.4
2023-10-23T12:27:05.600Z,15.4
2023-10-23T12:28:05.492Z,15.4
2023-10-23T12:29:05.475Z,15.4
2023-10-23T12:30:06.981Z,15.4
2023-10-23T12:31:22.725Z,15.4
2023-10-23T12:32:05.752Z,15.5
2023-10-23T12:33:16.948Z,15.5
2023-10-23T12:34:05.963Z,15.5
2023-10-23T12:35:05.558Z,15.5
2023-10-23T12:36:05.820Z,15.5
2023-10-23T12:37:05.643Z,15.5
2023-10-23T12:38:05.432Z,15.5
2023-10-23T12:39:05.440Z,15.5
2023-10-23T12:40:05.771Z,15.5
2023-10-23T12:41:05.446Z,15.5
2023-10-23T12:42:05.781Z,15.5
2023-10-23T12:43:05.770Z,15.5
2023-10-23T12:44:05.477Z,15.4
2023-10-23T12:45:05.710Z,15.4
2023-10-23T12:46:06.849Z,15.4
2023-10-23T12:47:05.641Z,15.4
2023-10-23T12:48:06.777Z,15.4
2023-10-23T12:49:06.922Z,15.4
2023-10-23T12:50:05.547Z,15.4
2023-10-23T12:51:05.443Z,15.3
2023-10-23T12:52:05.545Z,15.3
2023-10-23T12:53:05.501Z,15.3
2023-10-23T12:54:05.406Z,15.3
2023-10-23T12:55:05.643Z,15.3
2023-10-23T12:56:05.932Z,15.3
2023-10-23T12:57:05.443Z,15.3
2023-10-23T12:58:05.484Z,15.3
2023-10-23T12:59:05.399Z,15.4
2023-10-23T13:00:05.505Z,15.4
2023-10-23T13:01:05.612Z,15.4
2023-10-23T13:02:05.445Z,15.4
2023-10-23T13:03:05.441Z,15.4
2023-10-23T13:04:05.454Z,15.4
2023-10-23T13:05:05.633Z,15.4
2023-10-23T13:06:05.502Z,15.4
2023-10-23T13:07:05.856Z,15.4
2023-10-23T13:08:05.442Z,15.5
2023-10-23T13:09:05.385Z,15.5
2023-10-23T13:10:08.348Z,15.5
2023-10-23T13:11:05.388Z,15.5
2023-10-23T13:12:06.113Z,15.5
2023-10-23T13:13:05.510Z,15.5
2023-10-23T13:14:05.954Z,15.6
2023-10-23T13:15:05.521Z,15.5
2023-10-23T13:16:05.573Z,15.5
2023-10-23T13:17:05.635Z,15.5
2023-10-23T13:18:05.583Z,15.5
2023-10-23T13:19:06.032Z,15.5
2023-10-23T13:21:29.779Z,15.5
2023-10-23T13:21:30.997Z,15.5
2023-10-23T13:22:05.568Z,15.5
2023-10-23T13:23:05.387Z,15.5
2023-10-23T13:24:07.378Z,15.4
2023-10-23T13:25:05.475Z,15.4
2023-10-23T13:26:13.957Z,15.4
2023-10-23T13:27:05.536Z,15.4
2023-10-23T13:28:06.891Z,15.4
2023-10-23T13:29:05.404Z,15.4
2023-10-23T13:30:05.482Z,15.4
2023-10-23T13:31:05.635Z,15.4
2023-10-23T13:32:05.528Z,15.3
2023-10-23T13:33:05.415Z,15.3
2023-10-23T13:34:05.391Z,15.3
2023-10-23T13:35:05.416Z,15.3
2023-10-23T13:36:05.396Z,15.3
2023-10-23T13:37:05.571Z,15.3
2023-10-23T13:38:05.403Z,15.3
2023-10-23T13:39:39.279Z,15.3
2023-10-23T13:40:06.339Z,15.2